Norwich, KS

6:38 AM CDT on August 23, 2014 (GMT -0500)
Medicine Lodge | Change Station
CLOSE
Current Station
Airport
Location: Medicine Lodge,
Elevation: 1539 ft
Nearby Weather Stations

Elev 1539 ft 37.28 °N, 98.55 °W | Updated 42 minutes ago

Clear
Clear
73 °F
Feels Like 73 °F
N
6
Wind Variable Wind from SE
Gusts 13 mph

Today
High -- | Low -- °F
--% Chance of Precip.
Yesterday
High -- | Low -- °F
Precip. -- in
6:54 AM 8:13 PM
Waning Crescent, 4% visible
Pressure 29.83 in
Visibility -9999.0 miles
Clouds
Dew Point 55 °F
Humidity 53%
Rainfall 0.00 in
Snow Depth Not available.
UV Not available.
Pollen 11.80 out of 12
Air Quality Not available.
Flu Activity Not available.
METAR KP28 231056Z AUTO 14005KT 23/13 A2989 RMK AO1 SLP101 T02280128

More Conditions Fewer Conditions

Pressure 29.83 in
Visibility -9999.0 miles
Clouds
Dew Point 55 °F
Humidity 53%
Rainfall 0.00 in
Snow Depth Not available.
UV Not available.
Pollen 11.80 out of 12
Air Quality Not available.
Flu Activity Not available.
METAR KP28 231056Z AUTO 14005KT 23/13 A2989 RMK AO1 SLP101 T02280128

More Conditions Fewer Conditions

10-Day Weather Forecast

Almanac

Astronomy

Aug. 23, 2014 Rise Set
Actual Time 6:54 AM CDT 8:13 PM CDT
Civil Twilight 6:26 AM CDT 8:40 PM CDT
Nautical Twilight 5:54 AM CDT 9:12 PM CDT
Astronomical Twilight 5:20 AM CDT 9:46 PM CDT
Moon 5:12 AM CDT 6:58 PM CDT
Length of Visible Light 14h 13m
Length of Day
13h 18m
Tomorrow will be 2m 14s shorter.
Waning Crescent, 4% of the Moon is Illuminated
Today
Waning Crescent
Aug 25
New
Sep 2
First Quarter
Sep 8
Full
Sep 15
Last Quarter

Today's Extremes

State Highs State Lows

Community

WunderPhotos

Upload Photos

1,746,418 photos uploaded!

WunderBlogs® & News

By Dr. Jeff Masters
Director of Meteorology, Weather Underground
By Kari Strenfel
Meteorologist, Weather Underground
By Christopher C. Burt
Weather Historian, Weather Underground
August 23, 2014
August 23, 2014
August 23, 2014

Nearby

Snow Depth

Station Depth Elevation
No new snow has been reported.

Earthquake Activity

City Distance Mag. Time & Date
Yale, Oklahoma 109 miles 2.5 11:22 AM CDT
2014-08-18
Waukomis, Oklahoma 80 miles 2.6 9:40 AM CDT
2014-08-18
Yale, Oklahoma 107 miles 2.5 8:07 AM CDT
2014-08-18
Cherokee, Oklahoma 48 miles 3.8 8:25 PM CDT
2014-08-17
Minimum magnitude displayed is 2.5.

Coastal Water Temperatures

Place Temperature
No Stations Reporting

Nearby Weather Stations